Last Chance, Colorado
Current Conditions -  °F | °C
As of 11:53 AM on Friday 21 Nov 2014 (Local Time) from KAKO Reporting Station
Clear Clear  
Wind Chill: 53°   Ceiling: Unl
Heat Index: 53°   Visibility: 10mi
Dew Point: 22°   Wind: 5mph
Humidity: 30%   Direction: 20°NNE
Pressure: 29.91"   Gusts: NA
Location:  39.8912°N, 103.605°W
Report Text: KAKO 211853Z AUTO 02004KT 10SM CLR 12/M06 A2991 RMK AO2 SLP120 T01171056
Loading
Personal Weather Stations






























Interactive Weather Map New forecast layout! Learn more

10-Day Weather Forecast

Advertisements
Track Severe Weather on mobile